sensor_id;sensor_type;location;lat;lon;timestamp;pressure;altitude;pressure_sealevel;temperature
24201;BMP280;2801;50.972;7.856;2023-11-21T00:01:18;96898.63;;;7.10
24201;BMP280;2801;50.972;7.856;2023-11-21T00:03:45;96904.13;;;7.05
24201;BMP280;2801;50.972;7.856;2023-11-21T00:06:13;96907.91;;;7.04
24201;BMP280;2801;50.972;7.856;2023-11-21T00:08:40;96907.09;;;7.04
24201;BMP280;2801;50.972;7.856;2023-11-21T00:11:07;96909.31;;;7.02
24201;BMP280;2801;50.972;7.856;2023-11-21T00:13:35;96912.28;;;7.00
24201;BMP280;2801;50.972;7.856;2023-11-21T00:16:02;96917.94;;;6.99
24201;BMP280;2801;50.972;7.856;2023-11-21T00:18:29;96912.88;;;6.89
24201;BMP280;2801;50.972;7.856;2023-11-21T00:20:56;96921.69;;;6.89
24201;BMP280;2801;50.972;7.856;2023-11-21T00:23:25;96922.13;;;6.91
24201;BMP280;2801;50.972;7.856;2023-11-21T00:25:52;96921.81;;;6.93
24201;BMP280;2801;50.972;7.856;2023-11-21T00:28:20;96921.22;;;6.96
24201;BMP280;2801;50.972;7.856;2023-11-21T00:30:47;96917.94;;;6.99
24201;BMP280;2801;50.972;7.856;2023-11-21T00:33:14;96924.50;;;7.01
24201;BMP280;2801;50.972;7.856;2023-11-21T00:35:41;96922.00;;;7.05
24201;BMP280;2801;50.972;7.856;2023-11-21T00:38:08;96923.56;;;7.06
24201;BMP280;2801;50.972;7.856;2023-11-21T00:40:35;96919.66;;;7.12
24201;BMP280;2801;50.972;7.856;2023-11-21T00:43:03;96923.59;;;7.14
24201;BMP280;2801;50.972;7.856;2023-11-21T00:45:32;96926.41;;;7.18
24201;BMP280;2801;50.972;7.856;2023-11-21T00:47:59;96927.81;;;7.24
24201;BMP280;2801;50.972;7.856;2023-11-21T00:50:26;96924.69;;;7.30
24201;BMP280;2801;50.972;7.856;2023-11-21T00:52:54;96934.38;;;7.35
24201;BMP280;2801;50.972;7.856;2023-11-21T00:55:20;96937.53;;;7.37
24201;BMP280;2801;50.972;7.856;2023-11-21T00:57:48;96927.66;;;7.37
24201;BMP280;2801;50.972;7.856;2023-11-21T01:00:16;96925.94;;;7.41
24201;BMP280;2801;50.972;7.856;2023-11-21T01:02:46;96931.25;;;7.41
24201;BMP280;2801;50.972;7.856;2023-11-21T01:05:14;96937.84;;;7.44
24201;BMP280;2801;50.972;7.856;2023-11-21T01:07:41;96948.19;;;7.45
24201;BMP280;2801;50.972;7.856;2023-11-21T01:10:09;96944.44;;;7.46
24201;BMP280;2801;50.972;7.856;2023-11-21T01:12:38;96947.41;;;7.45
24201;BMP280;2801;50.972;7.856;2023-11-21T01:15:06;96947.88;;;7.47
24201;BMP280;2801;50.972;7.856;2023-11-21T01:17:39;96947.41;;;7.45
24201;BMP280;2801;50.972;7.856;2023-11-21T01:20:08;96949.28;;;7.44
24201;BMP280;2801;50.972;7.856;2023-11-21T01:22:40;96955.72;;;7.43
24201;BMP280;2801;50.972;7.856;2023-11-21T01:25:08;96950.69;;;7.42
24201;BMP280;2801;50.972;7.856;2023-11-21T01:27:36;96957.13;;;7.41
24201;BMP280;2801;50.972;7.856;2023-11-21T01:30:04;96960.91;;;7.40
24201;BMP280;2801;50.972;7.856;2023-11-21T01:32:32;96963.56;;;7.40
24201;BMP280;2801;50.972;7.856;2023-11-21T01:35:00;96973.13;;;7.41
24201;BMP280;2801;50.972;7.856;2023-11-21T01:37:27;96967.78;;;7.41
24201;BMP280;2801;50.972;7.856;2023-11-21T01:39:55;96975.78;;;7.41
24201;BMP280;2801;50.972;7.856;2023-11-21T01:42:22;96970.16;;;7.42
24201;BMP280;2801;50.972;7.856;2023-11-21T01:44:49;96967.47;;;7.42
24201;BMP280;2801;50.972;7.856;2023-11-21T01:47:17;96973.28;;;7.44
24201;BMP280;2801;50.972;7.856;2023-11-21T01:49:45;96971.88;;;7.47
24201;BMP280;2801;50.972;7.856;2023-11-21T01:52:13;96974.25;;;7.48
24201;BMP280;2801;50.972;7.856;2023-11-21T01:54:41;96970.16;;;7.51
24201;BMP280;2801;50.972;7.856;2023-11-21T01:57:09;96969.84;;;7.52
24201;BMP280;2801;50.972;7.856;2023-11-21T01:59:38;96973.75;;;7.55
24201;BMP280;2801;50.972;7.856;2023-11-21T02:02:06;96970.47;;;7.58
24201;BMP280;2801;50.972;7.856;2023-11-21T02:04:34;96967.47;;;7.59
24201;BMP280;2801;50.972;7.856;2023-11-21T02:07:02;96962.91;;;7.60
24201;BMP280;2801;50.972;7.856;2023-11-21T02:09:32;96969.06;;;7.60
24201;BMP280;2801;50.972;7.856;2023-11-21T02:12:02;96968.75;;;7.62
24201;BMP280;2801;50.972;7.856;2023-11-21T02:14:30;96974.22;;;7.65
24201;BMP280;2801;50.972;7.856;2023-11-21T02:16:57;96979.09;;;7.63
24201;BMP280;2801;50.972;7.856;2023-11-21T02:19:25;96977.38;;;7.59
24201;BMP280;2801;50.972;7.856;2023-11-21T02:22:00;96982.84;;;7.62
24201;BMP280;2801;50.972;7.856;2023-11-21T02:24:30;96990.53;;;7.64
24201;BMP280;2801;50.972;7.856;2023-11-21T02:26:58;96986.44;;;7.66
24201;BMP280;2801;50.972;7.856;2023-11-21T02:29:25;96992.25;;;7.68
24201;BMP280;2801;50.972;7.856;2023-11-21T02:31:55;96983.94;;;7.70
24201;BMP280;2801;50.972;7.856;2023-11-21T02:34:23;96993.50;;;7.71
24201;BMP280;2801;50.972;7.856;2023-11-21T02:36:52;96992.72;;;7.70
24201;BMP280;2801;50.972;7.856;2023-11-21T02:39:20;96992.72;;;7.70
24201;BMP280;2801;50.972;7.856;2023-11-21T02:41:51;96985.19;;;7.72
24201;BMP280;2801;50.972;7.856;2023-11-21T02:44:18;96994.44;;;7.75
24201;BMP280;2801;50.972;7.856;2023-11-21T02:46:45;96990.97;;;7.74
24201;BMP280;2801;50.972;7.856;2023-11-21T02:49:14;96997.91;;;7.76
24201;BMP280;2801;50.972;7.856;2023-11-21T02:51:41;96992.56;;;7.76
24201;BMP280;2801;50.972;7.856;2023-11-21T02:54:08;96999.47;;;7.77
24201;BMP280;2801;50.972;7.856;2023-11-21T02:56:36;96999.97;;;7.79
24201;BMP280;2801;50.972;7.856;2023-11-21T02:59:03;96999.31;;;7.82
24201;BMP280;2801;50.972;7.856;2023-11-21T03:01:30;97001.66;;;7.83
24201;BMP280;2801;50.972;7.856;2023-11-21T03:03:58;97006.22;;;7.83
24201;BMP280;2801;50.972;7.856;2023-11-21T03:06:25;97005.88;;;7.84
24201;BMP280;2801;50.972;7.856;2023-11-21T03:08:52;97006.38;;;7.86
24201;BMP280;2801;50.972;7.856;2023-11-21T03:11:19;97003.38;;;7.88
24201;BMP280;2801;50.972;7.856;2023-11-21T03:13:47;97001.16;;;7.90
24201;BMP280;2801;50.972;7.856;2023-11-21T03:16:15;97001.16;;;7.90
24201;BMP280;2801;50.972;7.856;2023-11-21T03:18:42;97009.03;;;7.86
24201;BMP280;2801;50.972;7.856;2023-11-21T03:21:10;97011.09;;;7.89
24201;BMP280;2801;50.972;7.856;2023-11-21T03:23:37;97004.00;;;7.85
24201;BMP280;2801;50.972;7.856;2023-11-21T03:26:04;97004.81;;;7.85
24201;BMP280;2801;50.972;7.856;2023-11-21T03:28:32;97019.72;;;7.86
24201;BMP280;2801;50.972;7.856;2023-11-21T03:31:00;97023.00;;;7.83
24201;BMP280;2801;50.972;7.856;2023-11-21T03:33:28;97027.09;;;7.81
24201;BMP280;2801;50.972;7.856;2023-11-21T03:35:57;97024.44;;;7.81
24201;BMP280;2801;50.972;7.856;2023-11-21T03:38:24;97030.25;;;7.83
24201;BMP280;2801;50.972;7.856;2023-11-21T03:40:51;97034.31;;;7.89
24201;BMP280;2801;50.972;7.856;2023-11-21T03:43:20;97034.47;;;7.84
24201;BMP280;2801;50.972;7.856;2023-11-21T03:45:47;97034.94;;;7.86
24201;BMP280;2801;50.972;7.856;2023-11-21T03:48:15;97033.38;;;7.93
24201;BMP280;2801;50.972;7.856;2023-11-21T03:50:43;97034.16;;;7.94
24201;BMP280;2801;50.972;7.856;2023-11-21T03:53:10;97034.47;;;7.92
24201;BMP280;2801;50.972;7.856;2023-11-21T03:55:37;97035.72;;;7.95
24201;BMP280;2801;50.972;7.856;2023-11-21T03:58:04;97042.63;;;7.96
24201;BMP280;2801;50.972;7.856;2023-11-21T04:00:31;97040.56;;;7.93
24201;BMP280;2801;50.972;7.856;2023-11-21T04:02:58;97050.47;;;7.92
24201;BMP280;2801;50.972;7.856;2023-11-21T04:05:26;97049.56;;;7.88
24201;BMP280;2801;50.972;7.856;2023-11-21T04:07:53;97062.56;;;7.90
24201;BMP280;2801;50.972;7.856;2023-11-21T04:10:20;97063.34;;;7.90
24201;BMP280;2801;50.972;7.856;2023-11-21T04:12:48;97064.59;;;7.93
24201;BMP280;2801;50.972;7.856;2023-11-21T04:15:15;97060.84;;;7.94
24201;BMP280;2801;50.972;7.856;2023-11-21T04:17:43;97064.28;;;7.94
24201;BMP280;2801;50.972;7.856;2023-11-21T04:20:11;97071.19;;;7.95
24201;BMP280;2801;50.972;7.856;2023-11-21T04:22:40;97069.78;;;7.98
24201;BMP280;2801;50.972;7.856;2023-11-21T04:25:14;97069.44;;;7.99
24201;BMP280;2801;50.972;7.856;2023-11-21T04:27:44;97067.56;;;8.00
24201;BMP280;2801;50.972;7.856;2023-11-21T04:30:13;97077.16;;;8.01
24201;BMP280;2801;50.972;7.856;2023-11-21T04:32:41;97078.75;;;8.02
24201;BMP280;2801;50.972;7.856;2023-11-21T04:35:08;97082.97;;;8.03
24201;BMP280;2801;50.972;7.856;2023-11-21T04:37:36;97085.31;;;8.04
24201;BMP280;2801;50.972;7.856;2023-11-21T04:40:04;97086.88;;;8.05
24201;BMP280;2801;50.972;7.856;2023-11-21T04:42:35;97096.94;;;8.08
24201;BMP280;2801;50.972;7.856;2023-11-21T04:45:05;97101.97;;;8.10
24201;BMP280;2801;50.972;7.856;2023-11-21T04:47:36;97102.28;;;8.08
24201;BMP280;2801;50.972;7.856;2023-11-21T04:50:05;97107.75;;;8.12
24201;BMP280;2801;50.972;7.856;2023-11-21T04:52:33;97099.44;;;8.13
24201;BMP280;2801;50.972;7.856;2023-11-21T04:55:00;97104.47;;;8.15
24201;BMP280;2801;50.972;7.856;2023-11-21T04:57:29;97109.50;;;8.16
24201;BMP280;2801;50.972;7.856;2023-11-21T04:59:56;97113.28;;;8.15
24201;BMP280;2801;50.972;7.856;2023-11-21T05:02:23;97118.31;;;8.17
24201;BMP280;2801;50.972;7.856;2023-11-21T05:05:02;97101.50;;;8.16
24201;BMP280;2801;50.972;7.856;2023-11-21T05:07:30;97108.69;;;8.16
24201;BMP280;2801;50.972;7.856;2023-11-21T05:09:58;97115.31;;;8.18
24201;BMP280;2801;50.972;7.856;2023-11-21T05:12:26;97114.22;;;8.19
24201;BMP280;2801;50.972;7.856;2023-11-21T05:14:53;97113.09;;;8.20
24201;BMP280;2801;50.972;7.856;2023-11-21T05:17:20;97111.53;;;8.19
24201;BMP280;2801;50.972;7.856;2023-11-21T05:19:47;97113.09;;;8.20
24201;BMP280;2801;50.972;7.856;2023-11-21T05:22:16;97117.66;;;8.20
24201;BMP280;2801;50.972;7.856;2023-11-21T05:24:43;97125.38;;;8.21
24201;BMP280;2801;50.972;7.856;2023-11-21T05:27:10;97127.56;;;8.19
24201;BMP280;2801;50.972;7.856;2023-11-21T05:29:37;97131.19;;;8.23
24201;BMP280;2801;50.972;7.856;2023-11-21T05:32:05;97128.84;;;8.22
24201;BMP280;2801;50.972;7.856;2023-11-21T05:34:32;97132.31;;;8.22
24201;BMP280;2801;50.972;7.856;2023-11-21T05:36:59;97130.88;;;8.25
24201;BMP280;2801;50.972;7.856;2023-11-21T05:39:26;97139.22;;;8.23
24201;BMP280;2801;50.972;7.856;2023-11-21T05:41:55;97138.91;;;8.25
24201;BMP280;2801;50.972;7.856;2023-11-21T05:44:22;97147.38;;;8.27
24201;BMP280;2801;50.972;7.856;2023-11-21T05:46:50;97153.50;;;8.27
24201;BMP280;2801;50.972;7.856;2023-11-21T05:49:18;97147.84;;;8.29
24201;BMP280;2801;50.972;7.856;2023-11-21T05:51:48;97142.50;;;8.29
24201;BMP280;2801;50.972;7.856;2023-11-21T05:54:15;97148.31;;;8.31
24201;BMP280;2801;50.972;7.856;2023-11-21T05:56:44;97146.75;;;8.30
24201;BMP280;2801;50.972;7.856;2023-11-21T05:59:11;97144.25;;;8.25
24201;BMP280;2801;50.972;7.856;2023-11-21T06:01:38;97153.16;;;8.20
24201;BMP280;2801;50.972;7.856;2023-11-21T06:04:06;97161.47;;;8.19
24201;BMP280;2801;50.972;7.856;2023-11-21T06:06:36;97167.44;;;8.16
24201;BMP280;2801;50.972;7.856;2023-11-21T06:09:03;97165.41;;;8.13
24201;BMP280;2801;50.972;7.856;2023-11-21T06:11:30;97165.25;;;8.09
24201;BMP280;2801;50.972;7.856;2023-11-21T06:13:57;97167.13;;;8.09
24201;BMP280;2801;50.972;7.856;2023-11-21T06:16:25;97174.66;;;8.07
24201;BMP280;2801;50.972;7.856;2023-11-21T06:18:52;97178.75;;;8.04
24201;BMP280;2801;50.972;7.856;2023-11-21T06:21:19;97190.66;;;7.98
24201;BMP280;2801;50.972;7.856;2023-11-21T06:23:46;97186.59;;;8.01
24201;BMP280;2801;50.972;7.856;2023-11-21T06:26:19;97193.03;;;8.00
24201;BMP280;2801;50.972;7.856;2023-11-21T06:28:47;97192.88;;;7.96
24201;BMP280;2801;50.972;7.856;2023-11-21T06:31:14;97202.91;;;7.99
24201;BMP280;2801;50.972;7.856;2023-11-21T06:33:42;97202.59;;;8.01
24201;BMP280;2801;50.972;7.856;2023-11-21T06:36:10;97207.63;;;8.02
24201;BMP280;2801;50.972;7.856;2023-11-21T06:38:38;97214.72;;;8.07
24201;BMP280;2801;50.972;7.856;2023-11-21T06:41:06;97217.84;;;8.09
24201;BMP280;2801;50.972;7.856;2023-11-21T06:43:33;97209.53;;;8.10
24201;BMP280;2801;50.972;7.856;2023-11-21T06:46:00;97219.88;;;8.12
24201;BMP280;2801;50.972;7.856;2023-11-21T06:48:27;97229.16;;;8.14
24201;BMP280;2801;50.972;7.856;2023-11-21T06:50:54;97231.22;;;8.17
24201;BMP280;2801;50.972;7.856;2023-11-21T06:53:21;97226.34;;;8.19
24201;BMP280;2801;50.972;7.856;2023-11-21T06:55:48;97222.88;;;8.19
24201;BMP280;2801;50.972;7.856;2023-11-21T06:58:16;97227.47;;;8.18
24201;BMP280;2801;50.972;7.856;2023-11-21T07:00:43;97230.91;;;8.19
24201;BMP280;2801;50.972;7.856;2023-11-21T07:03:13;97228.22;;;8.19
24201;BMP280;2801;50.972;7.856;2023-11-21T07:05:41;97232.00;;;8.18
24201;BMP280;2801;50.972;7.856;2023-11-21T07:08:08;97229.66;;;8.16
24201;BMP280;2801;50.972;7.856;2023-11-21T07:10:35;97239.06;;;8.14
24201;BMP280;2801;50.972;7.856;2023-11-21T07:13:03;97243.16;;;8.11
24201;BMP280;2801;50.972;7.856;2023-11-21T07:15:30;97252.53;;;8.09
24201;BMP280;2801;50.972;7.856;2023-11-21T07:17:58;97252.41;;;8.05
24201;BMP280;2801;50.972;7.856;2023-11-21T07:20:25;97252.06;;;7.98
24201;BMP280;2801;50.972;7.856;2023-11-21T07:22:52;97253.28;;;7.84
24201;BMP280;2801;50.972;7.856;2023-11-21T07:25:19;97260.59;;;7.61
24201;BMP280;2801;50.972;7.856;2023-11-21T07:27:46;97271.25;;;7.52
24201;BMP280;2801;50.972;7.856;2023-11-21T07:30:14;97275.06;;;7.29
24201;BMP280;2801;50.972;7.856;2023-11-21T07:32:41;97282.63;;;7.14
24201;BMP280;2801;50.972;7.856;2023-11-21T07:35:08;97288.28;;;7.12
24201;BMP280;2801;50.972;7.856;2023-11-21T07:37:37;97287.44;;;7.03
24201;BMP280;2801;50.972;7.856;2023-11-21T07:40:05;97294.13;;;7.01
24201;BMP280;2801;50.972;7.856;2023-11-21T07:42:35;97284.88;;;6.98
24201;BMP280;2801;50.972;7.856;2023-11-21T07:45:04;97299.31;;;6.97
24201;BMP280;2801;50.972;7.856;2023-11-21T07:47:31;97299.97;;;7.03
24201;BMP280;2801;50.972;7.856;2023-11-21T07:50:06;97304.50;;;7.02
24201;BMP280;2801;50.972;7.856;2023-11-21T07:52:35;97309.84;;;7.02
24201;BMP280;2801;50.972;7.856;2023-11-21T07:55:02;97312.19;;;7.04
24201;BMP280;2801;50.972;7.856;2023-11-21T07:57:30;97317.34;;;7.00
24201;BMP280;2801;50.972;7.856;2023-11-21T07:59:59;97317.06;;;7.02
24201;BMP280;2801;50.972;7.856;2023-11-21T08:02:27;97322.84;;;7.04
24201;BMP280;2801;50.972;7.856;2023-11-21T08:04:57;97324.78;;;7.12
24201;BMP280;2801;50.972;7.856;2023-11-21T08:07:25;97333.06;;;7.24
24201;BMP280;2801;50.972;7.856;2023-11-21T08:09:53;97339.69;;;7.35
24201;BMP280;2801;50.972;7.856;2023-11-21T08:12:21;97341.78;;;7.46
24201;BMP280;2801;50.972;7.856;2023-11-21T08:14:50;97343.13;;;7.57
24201;BMP280;2801;50.972;7.856;2023-11-21T08:17:17;97337.84;;;7.66
24201;BMP280;2801;50.972;7.856;2023-11-21T08:19:47;97341.31;;;7.75
24201;BMP280;2801;50.972;7.856;2023-11-21T08:22:16;97345.13;;;7.83
24201;BMP280;2801;50.972;7.856;2023-11-21T08:24:44;97340.59;;;7.92
24201;BMP280;2801;50.972;7.856;2023-11-21T08:27:14;97343.31;;;8.00
24201;BMP280;2801;50.972;7.856;2023-11-21T08:29:44;97334.53;;;8.08
24201;BMP280;2801;50.972;7.856;2023-11-21T08:32:11;97344.75;;;8.15
24201;BMP280;2801;50.972;7.856;2023-11-21T08:34:38;97341.66;;;8.21
24201;BMP280;2801;50.972;7.856;2023-11-21T08:37:08;97344.84;;;8.32
24201;BMP280;2801;50.972;7.856;2023-11-21T08:39:37;97335.47;;;8.43
24201;BMP280;2801;50.972;7.856;2023-11-21T08:42:04;97342.22;;;8.57
24201;BMP280;2801;50.972;7.856;2023-11-21T08:44:31;97339.09;;;8.72
24201;BMP280;2801;50.972;7.856;2023-11-21T08:46:58;97346.81;;;8.82
24201;BMP280;2801;50.972;7.856;2023-11-21T08:49:25;97349.00;;;8.89
24201;BMP280;2801;50.972;7.856;2023-11-21T08:51:54;97354.03;;;8.99
24201;BMP280;2801;50.972;7.856;2023-11-21T08:54:22;97355.13;;;9.06
24201;BMP280;2801;50.972;7.856;2023-11-21T08:56:48;97366.47;;;9.12
24201;BMP280;2801;50.972;7.856;2023-11-21T08:59:16;97366.28;;;9.17
24201;BMP280;2801;50.972;7.856;2023-11-21T09:01:43;97377.31;;;9.24
24201;BMP280;2801;50.972;7.856;2023-11-21T09:04:11;97380.91;;;9.28
24201;BMP280;2801;50.972;7.856;2023-11-21T09:06:41;97384.41;;;9.28
24201;BMP280;2801;50.972;7.856;2023-11-21T09:09:08;97384.22;;;9.33
24201;BMP280;2801;50.972;7.856;2023-11-21T09:11:38;97377.75;;;9.34
24201;BMP280;2801;50.972;7.856;2023-11-21T09:14:06;97391.13;;;9.34
24201;BMP280;2801;50.972;7.856;2023-11-21T09:16:33;97393.50;;;9.36
24201;BMP280;2801;50.972;7.856;2023-11-21T09:19:00;97396.66;;;9.38
24201;BMP280;2801;50.972;7.856;2023-11-21T09:21:28;97400.28;;;9.42
24201;BMP280;2801;50.972;7.856;2023-11-21T09:23:57;97410.81;;;9.47
24201;BMP280;2801;50.972;7.856;2023-11-21T09:26:25;97407.97;;;9.52
24201;BMP280;2801;50.972;7.856;2023-11-21T09:28:52;97415.03;;;9.56
24201;BMP280;2801;50.972;7.856;2023-11-21T09:31:19;97421.81;;;9.62
24201;BMP280;2801;50.972;7.856;2023-11-21T09:33:51;97414.25;;;9.64
24201;BMP280;2801;50.972;7.856;2023-11-21T09:36:18;97419.75;;;9.68
24201;BMP280;2801;50.972;7.856;2023-11-21T09:38:45;97426.69;;;9.69
24201;BMP280;2801;50.972;7.856;2023-11-21T09:41:40;97427.63;;;9.64
24201;BMP280;2801;50.972;7.856;2023-11-21T09:44:20;97433.91;;;9.68
24201;BMP280;2801;50.972;7.856;2023-11-21T09:46:51;97430.47;;;9.68
24201;BMP280;2801;50.972;7.856;2023-11-21T09:49:24;97432.84;;;9.69
24201;BMP280;2801;50.972;7.856;2023-11-21T09:51:55;97428.72;;;9.72
24201;BMP280;2801;50.972;7.856;2023-11-21T09:54:27;97429.03;;;9.79
24201;BMP280;2801;50.972;7.856;2023-11-21T09:56:56;97435.47;;;9.86
24201;BMP280;2801;50.972;7.856;2023-11-21T09:59:30;97439.72;;;9.87
24201;BMP280;2801;50.972;7.856;2023-11-21T10:01:59;97434.84;;;9.81
24201;BMP280;2801;50.972;7.856;2023-11-21T10:04:28;97439.88;;;9.82
24201;BMP280;2801;50.972;7.856;2023-11-21T10:06:55;97443.03;;;9.84
24201;BMP280;2801;50.972;7.856;2023-11-21T10:09:25;97433.91;;;9.77
24201;BMP280;2801;50.972;7.856;2023-11-21T10:11:55;97438.16;;;9.78
24201;BMP280;2801;50.972;7.856;2023-11-21T10:14:25;97444.63;;;9.77
24201;BMP280;2801;50.972;7.856;2023-11-21T10:16:57;97440.38;;;9.76
24201;BMP280;2801;50.972;7.856;2023-11-21T10:19:25;97439.09;;;9.82
24201;BMP280;2801;50.972;7.856;2023-11-21T10:21:54;97446.34;;;9.81
24201;BMP280;2801;50.972;7.856;2023-11-21T10:24:21;97443.97;;;9.88
24201;BMP280;2801;50.972;7.856;2023-11-21T10:26:49;97450.41;;;9.96
24201;BMP280;2801;50.972;7.856;2023-11-21T10:29:20;97453.41;;;9.94
24201;BMP280;2801;50.972;7.856;2023-11-21T10:31:50;97454.19;;;9.95
24201;BMP280;2801;50.972;7.856;2023-11-21T10:34:20;97446.78;;;9.92
24201;BMP280;2801;50.972;7.856;2023-11-21T10:36:49;97440.63;;;9.91
24201;BMP280;2801;50.972;7.856;2023-11-21T10:39:18;97449.03;;;9.90
24201;BMP280;2801;50.972;7.856;2023-11-21T10:41:50;97460.66;;;9.94
24201;BMP280;2801;50.972;7.856;2023-11-21T10:44:18;97447.53;;;10.01
24201;BMP280;2801;50.972;7.856;2023-11-21T10:46:54;97453.25;;;9.99
24201;BMP280;2801;50.972;7.856;2023-11-21T10:49:26;97462.22;;;10.03
24201;BMP280;2801;50.972;7.856;2023-11-21T10:51:55;97461.09;;;10.04
24201;BMP280;2801;50.972;7.856;2023-11-21T10:54:25;97456.53;;;10.05
24201;BMP280;2801;50.972;7.856;2023-11-21T10:57:00;97451.66;;;10.07
24201;BMP280;2801;50.972;7.856;2023-11-21T10:59:30;97460.31;;;10.12
24201;BMP280;2801;50.972;7.856;2023-11-21T11:02:06;97445.03;;;10.13
24201;BMP280;2801;50.972;7.856;2023-11-21T11:04:36;97449.28;;;10.14
24201;BMP280;2801;50.972;7.856;2023-11-21T11:07:10;97445.19;;;10.16
24201;BMP280;2801;50.972;7.856;2023-11-21T11:09:39;97449.41;;;10.17
24201;BMP280;2801;50.972;7.856;2023-11-21T11:12:06;97451.03;;;10.18
24201;BMP280;2801;50.972;7.856;2023-11-21T11:14:41;97446.59;;;10.22
24201;BMP280;2801;50.972;7.856;2023-11-21T11:17:08;97448.16;;;10.23
24201;BMP280;2801;50.972;7.856;2023-11-21T11:19:37;97450.19;;;10.26
24201;BMP280;2801;50.972;7.856;2023-11-21T11:26:04;97448.56;;;10.42
24201;BMP280;2801;50.972;7.856;2023-11-21T11:29:03;97456.59;;;10.42
24201;BMP280;2801;50.972;7.856;2023-11-21T11:35:17;97462.47;;;10.36
24201;BMP280;2801;50.972;7.856;2023-11-21T11:37:46;97455.66;;;10.38
24201;BMP280;2801;50.972;7.856;2023-11-21T11:40:14;97466.69;;;10.37
24201;BMP280;2801;50.972;7.856;2023-11-21T11:42:58;97462.16;;;10.29
24201;BMP280;2801;50.972;7.856;2023-11-21T11:45:33;97465.78;;;10.24
24201;BMP280;2801;50.972;7.856;2023-11-21T11:48:05;97465.66;;;10.21
24201;BMP280;2801;50.972;7.856;2023-11-21T11:50:32;97475.91;;;10.19
24201;BMP280;2801;50.972;7.856;2023-11-21T11:53:14;97474.34;;;10.18
24201;BMP280;2801;50.972;7.856;2023-11-21T11:55:43;97474.00;;;10.19
24201;BMP280;2801;50.972;7.856;2023-11-21T11:58:10;97478.88;;;10.17
24201;BMP280;2801;50.972;7.856;2023-11-21T12:00:40;97477.00;;;10.18
24201;BMP280;2801;50.972;7.856;2023-11-21T12:03:09;97481.56;;;10.17
24201;BMP280;2801;50.972;7.856;2023-11-21T12:05:37;97481.56;;;10.17
24201;BMP280;2801;50.972;7.856;2023-11-21T12:08:08;97466.94;;;10.15
24201;BMP280;2801;50.972;7.856;2023-11-21T12:10:39;97474.94;;;10.23
24201;BMP280;2801;50.972;7.856;2023-11-21T12:13:11;97463.72;;;10.30
24201;BMP280;2801;50.972;7.856;2023-11-21T12:15:41;97468.75;;;10.40
24201;BMP280;2801;50.972;7.856;2023-11-21T12:18:09;97476.16;;;10.43
24201;BMP280;2801;50.972;7.856;2023-11-21T12:20:36;97477.56;;;10.40
24201;BMP280;2801;50.972;7.856;2023-11-21T12:23:07;97475.84;;;10.44
24201;BMP280;2801;50.972;7.856;2023-11-21T12:25:41;97472.31;;;10.52
24201;BMP280;2801;50.972;7.856;2023-11-21T12:28:09;97478.13;;;10.54
24201;BMP280;2801;50.972;7.856;2023-11-21T12:30:36;97473.09;;;10.53
24201;BMP280;2801;50.972;7.856;2023-11-21T12:33:06;97476.75;;;10.48
24201;BMP280;2801;50.972;7.856;2023-11-21T12:35:35;97484.31;;;10.46
24201;BMP280;2801;50.972;7.856;2023-11-21T12:38:04;97485.88;;;10.47
24201;BMP280;2801;50.972;7.856;2023-11-21T12:40:32;97488.13;;;10.45
24201;BMP280;2801;50.972;7.856;2023-11-21T12:43:01;97488.13;;;10.37
24201;BMP280;2801;50.972;7.856;2023-11-21T12:45:30;97491.44;;;10.34
24201;BMP280;2801;50.972;7.856;2023-11-21T12:48:04;97501.56;;;10.28
24201;BMP280;2801;50.972;7.856;2023-11-21T12:50:37;97509.75;;;10.32
24201;BMP280;2801;50.972;7.856;2023-11-21T12:53:12;97507.22;;;10.27
24201;BMP280;2801;50.972;7.856;2023-11-21T12:55:40;97514.34;;;10.23
24201;BMP280;2801;50.972;7.856;2023-11-21T12:58:11;97524.13;;;10.19
24201;BMP280;2801;50.972;7.856;2023-11-21T13:00:46;97520.81;;;10.22
24201;BMP280;2801;50.972;7.856;2023-11-21T13:03:16;97526.78;;;10.19
24201;BMP280;2801;50.972;7.856;2023-11-21T13:05:48;97515.31;;;10.10
24201;BMP280;2801;50.972;7.856;2023-11-21T13:08:23;97518.81;;;10.10
24201;BMP280;2801;50.972;7.856;2023-11-21T13:10:56;97512.97;;;10.08
24201;BMP280;2801;50.972;7.856;2023-11-21T13:13:28;97509.97;;;10.10
24201;BMP280;2801;50.972;7.856;2023-11-21T13:16:01;97511.53;;;10.11
24201;BMP280;2801;50.972;7.856;2023-11-21T13:18:32;97514.69;;;10.13
24201;BMP280;2801;50.972;7.856;2023-11-21T13:21:05;97510.09;;;10.13
24201;BMP280;2801;50.972;7.856;2023-11-21T13:23:45;97521.75;;;10.17
24201;BMP280;2801;50.972;7.856;2023-11-21T13:26:14;97520.97;;;10.17
24201;BMP280;2801;50.972;7.856;2023-11-21T13:28:42;97519.88;;;10.18
24201;BMP280;2801;50.972;7.856;2023-11-21T13:31:14;97526.16;;;10.13
24201;BMP280;2801;50.972;7.856;2023-11-21T13:33:49;97526.19;;;10.05
24201;BMP280;2801;50.972;7.856;2023-11-21T13:36:25;97521.13;;;10.03
24201;BMP280;2801;50.972;7.856;2023-11-21T13:38:53;97523.03;;;10.03
24201;BMP280;2801;50.972;7.856;2023-11-21T13:41:21;97531.38;;;10.01
24201;BMP280;2801;50.972;7.856;2023-11-21T13:43:56;97533.91;;;9.98
24201;BMP280;2801;50.972;7.856;2023-11-21T13:46:38;97543.03;;;9.97
24201;BMP280;2801;50.972;7.856;2023-11-21T13:49:06;97546.34;;;9.94
24201;BMP280;2801;50.972;7.856;2023-11-21T13:51:37;97554.69;;;9.92
24201;BMP280;2801;50.972;7.856;2023-11-21T13:54:10;97552.66;;;9.89
24201;BMP280;2801;50.972;7.856;2023-11-21T13:56:37;97565.41;;;9.92
24201;BMP280;2801;50.972;7.856;2023-11-21T13:59:06;97568.22;;;9.87
24201;BMP280;2801;50.972;7.856;2023-11-21T14:01:46;97573.13;;;9.77
24201;BMP280;2801;50.972;7.856;2023-11-21T14:04:26;97574.38;;;9.79
24201;BMP280;2801;50.972;7.856;2023-11-21T14:07:12;97574.22;;;9.76
24201;BMP280;2801;50.972;7.856;2023-11-21T14:10:03;97577.53;;;9.73
24201;BMP280;2801;50.972;7.856;2023-11-21T14:12:33;97586.34;;;9.73
24201;BMP280;2801;50.972;7.856;2023-11-21T14:15:05;97581.31;;;9.72
24201;BMP280;2801;50.972;7.856;2023-11-21T14:17:36;97586.66;;;9.72
24201;BMP280;2801;50.972;7.856;2023-11-21T14:20:07;97588.09;;;9.69
24201;BMP280;2801;50.972;7.856;2023-11-21T14:22:42;97585.22;;;9.66
24201;BMP280;2801;50.972;7.856;2023-11-21T14:25:09;97591.84;;;9.68
24201;BMP280;2801;50.972;7.856;2023-11-21T14:27:38;97593.13;;;9.71
24201;BMP280;2801;50.972;7.856;2023-11-21T14:30:06;97595.31;;;9.69
24201;BMP280;2801;50.972;7.856;2023-11-21T14:32:34;97599.09;;;9.68
24201;BMP280;2801;50.972;7.856;2023-11-21T14:35:01;97597.84;;;9.65
24201;BMP280;2801;50.972;7.856;2023-11-21T14:37:30;97607.75;;;9.65
24201;BMP280;2801;50.972;7.856;2023-11-21T14:39:57;97601.16;;;9.62
24201;BMP280;2801;50.972;7.856;2023-11-21T14:42:24;97608.22;;;9.67
24201;BMP280;2801;50.972;7.856;2023-11-21T14:44:56;97606.97;;;9.64
24201;BMP280;2801;50.972;7.856;2023-11-21T14:47:27;97610.75;;;9.63
24201;BMP280;2801;50.972;7.856;2023-11-21T14:49:54;97607.91;;;9.60